createdAt,value
2022-09-06T00:02:15.857Z,4.05
2022-09-06T00:04:42.510Z,3.05
2022-09-06T00:07:09.134Z,2.00
2022-09-06T00:09:35.765Z,3.05
2022-09-06T00:12:02.531Z,6.35
2022-09-06T00:14:29.152Z,2.17
2022-09-06T00:16:55.795Z,1.75
2022-09-06T00:19:22.794Z,4.68
2022-09-06T00:21:49.391Z,2.22
2022-09-06T00:24:16.305Z,1.75
2022-09-06T00:26:42.956Z,2.33
2022-09-06T00:29:09.551Z,3.03
2022-09-06T00:31:36.255Z,4.25
2022-09-06T00:34:03.047Z,3.60
2022-09-06T00:36:29.732Z,2.60
2022-09-06T00:38:56.713Z,1.52
2022-09-06T00:41:23.365Z,3.80
2022-09-06T00:43:50.107Z,2.63
2022-09-06T00:46:23.738Z,4.18
2022-09-06T00:48:54.856Z,3.47
2022-09-06T00:51:24.709Z,3.05
2022-09-06T00:53:52.175Z,2.55
2022-09-06T00:56:19.048Z,3.25
2022-09-06T00:58:46.801Z,2.55
2022-09-06T01:01:13.579Z,3.88
2022-09-06T01:03:40.589Z,2.15
2022-09-06T01:06:21.862Z,4.32
2022-09-06T01:09:21.123Z,4.47
2022-09-06T01:12:00.712Z,4.32
2022-09-06T01:14:52.590Z,3.65
2022-09-06T01:18:01.882Z,2.20
2022-09-06T01:20:36.099Z,4.88
2022-09-06T01:23:11.546Z,2.85
2022-09-06T01:25:53.282Z,6.43
2022-09-06T01:28:40.130Z,4.57
2022-09-06T01:31:35.294Z,3.88
2022-09-06T01:34:07.803Z,3.80
2022-09-06T01:37:06.322Z,5.90
2022-09-06T01:39:33.508Z,3.58
2022-09-06T01:42:23.716Z,4.18
2022-09-06T01:44:58.688Z,3.92
2022-09-06T01:47:37.278Z,3.88
2022-09-06T01:50:12.916Z,5.20
2022-09-06T01:53:04.848Z,5.43
2022-09-06T01:55:35.615Z,4.20
2022-09-06T01:58:15.695Z,4.75
2022-09-06T02:00:53.947Z,5.93
2022-09-06T02:04:02.363Z,4.70
2022-09-06T02:06:38.927Z,5.45
2022-09-06T02:09:17.116Z,4.05
2022-09-06T02:11:50.641Z,9.18
2022-09-06T02:14:24.214Z,7.47
2022-09-06T02:16:53.777Z,6.85
2022-09-06T02:19:27.654Z,11.95
2022-09-06T02:21:57.219Z,4.78
2022-09-06T02:24:30.557Z,5.05
2022-09-06T02:26:57.598Z,4.80
2022-09-06T02:29:24.433Z,6.50
2022-09-06T02:31:57.333Z,10.70
2022-09-06T02:34:23.963Z,5.47
2022-09-06T02:36:50.802Z,4.90
2022-09-06T02:39:17.457Z,3.17
2022-09-06T02:41:47.929Z,4.63
2022-09-06T02:44:14.974Z,4.28
2022-09-06T02:46:41.701Z,5.25
2022-09-06T02:49:08.511Z,8.02
2022-09-06T02:51:39.227Z,5.28
2022-09-06T02:54:06.818Z,3.53
2022-09-06T02:56:33.884Z,4.20
2022-09-06T02:59:00.807Z,3.53
2022-09-06T03:01:27.637Z,4.18
2022-09-06T03:03:54.415Z,4.38
2022-09-06T03:06:21.082Z,3.88
2022-09-06T03:08:47.746Z,4.22
2022-09-06T03:11:14.664Z,4.95
2022-09-06T03:13:41.482Z,5.68
2022-09-06T03:16:08.152Z,5.82
2022-09-06T03:18:34.927Z,3.88
2022-09-06T03:21:01.729Z,6.53
2022-09-06T03:23:29.502Z,7.38
2022-09-06T03:25:56.723Z,4.30
2022-09-06T03:28:23.696Z,3.92
2022-09-06T03:30:51.922Z,3.78
2022-09-06T03:33:20.037Z,4.30
2022-09-06T03:35:59.605Z,5.05
2022-09-06T03:38:28.406Z,5.90
2022-09-06T03:40:55.482Z,4.25
2022-09-06T03:43:24.338Z,5.57
2022-09-06T03:45:53.609Z,4.75
2022-09-06T03:48:22.079Z,4.32
2022-09-06T03:50:51.290Z,4.30
2022-09-06T03:53:18.464Z,4.65
2022-09-06T03:55:50.106Z,5.95
2022-09-06T03:58:18.997Z,4.80
2022-09-06T04:00:46.351Z,7.18
2022-09-06T04:03:13.453Z,4.70
2022-09-06T04:05:40.387Z,5.75
2022-09-06T04:08:07.075Z,6.63
2022-09-06T04:10:33.982Z,5.78
2022-09-06T04:13:00.822Z,6.78
2022-09-06T04:15:27.453Z,3.83
2022-09-06T04:17:54.056Z,4.53
2022-09-06T04:20:20.688Z,4.60
2022-09-06T04:22:47.306Z,5.18
2022-09-06T04:25:13.963Z,6.63
2022-09-06T04:27:40.799Z,5.28
2022-09-06T04:30:08.346Z,5.40
2022-09-06T04:32:35.026Z,5.65
2022-09-06T04:35:01.872Z,6.70
2022-09-06T04:37:28.569Z,6.07
2022-09-06T04:39:55.556Z,5.28
2022-09-06T04:42:22.384Z,5.05
2022-09-06T04:44:49.013Z,6.07
2022-09-06T04:47:18.086Z,6.15
2022-09-06T04:49:45.497Z,5.03
2022-09-06T04:52:12.387Z,6.97
2022-09-06T04:54:39.319Z,13.50
2022-09-06T04:57:06.223Z,5.65
2022-09-06T04:59:32.890Z,5.35
2022-09-06T05:01:59.784Z,6.07
2022-09-06T05:04:26.859Z,6.18
2022-09-06T05:07:02.106Z,10.55
2022-09-06T05:09:29.025Z,5.82
2022-09-06T05:11:56.062Z,6.82
2022-09-06T05:14:22.765Z,6.50
2022-09-06T05:16:50.361Z,5.35
2022-09-06T05:19:17.855Z,6.93
2022-09-06T05:21:44.806Z,5.45
2022-09-06T05:24:11.755Z,5.80
2022-09-06T05:26:38.437Z,7.45
2022-09-06T05:29:05.139Z,6.78
2022-09-06T05:31:34.283Z,7.28
2022-09-06T05:34:01.044Z,6.90
2022-09-06T05:36:29.414Z,8.48
2022-09-06T05:38:57.386Z,7.53
2022-09-06T05:41:24.777Z,7.95
2022-09-06T05:43:51.478Z,6.95
2022-09-06T05:46:18.445Z,7.13
2022-09-06T05:48:52.422Z,9.48
2022-09-06T05:51:19.063Z,7.45
2022-09-06T05:53:46.090Z,6.30
2022-09-06T05:56:14.519Z,8.18
2022-09-06T05:58:41.200Z,6.63
2022-09-06T06:01:17.292Z,6.63
2022-09-06T06:03:51.125Z,8.30
2022-09-06T06:06:18.318Z,10.40
2022-09-06T06:08:45.193Z,5.80
2022-09-06T06:11:12.178Z,6.60
2022-09-06T06:13:39.715Z,7.60
2022-09-06T06:16:08.002Z,8.30
2022-09-06T06:18:35.019Z,5.93
2022-09-06T06:21:15.543Z,8.60
2022-09-06T06:23:44.860Z,8.15
2022-09-06T06:26:12.564Z,6.32
2022-09-06T06:28:40.206Z,8.68
2022-09-06T06:31:09.349Z,10.80
2022-09-06T06:33:38.873Z,10.30
2022-09-06T06:36:08.223Z,11.43
2022-09-06T06:38:37.465Z,9.57
2022-09-06T06:41:07.045Z,11.90
2022-09-06T06:43:38.052Z,10.38
2022-09-06T06:46:14.879Z,12.90
2022-09-06T06:48:43.834Z,10.52
2022-09-06T06:51:13.513Z,12.07
2022-09-06T06:53:40.558Z,10.73
2022-09-06T06:56:23.556Z,10.48
2022-09-06T06:58:52.749Z,11.50
2022-09-06T07:01:21.317Z,10.85
2022-09-06T07:03:49.096Z,11.55
2022-09-06T07:06:16.375Z,13.68
2022-09-06T07:08:43.374Z,14.23
2022-09-06T07:11:11.927Z,11.05
2022-09-06T07:13:39.097Z,10.63
2022-09-06T07:16:20.570Z,11.25
2022-09-06T07:18:50.387Z,11.77
2022-09-06T07:21:41.705Z,12.63
2022-09-06T07:24:09.407Z,11.20
2022-09-06T07:26:38.230Z,11.52
2022-09-06T07:29:06.387Z,11.90
2022-09-06T07:34:20.836Z,10.98
2022-09-06T07:36:48.237Z,13.35
2022-09-06T07:39:15.001Z,10.60
2022-09-06T07:41:42.971Z,11.65
2022-09-06T07:44:10.147Z,11.98
2022-09-06T07:46:37.327Z,11.30
2022-09-06T07:49:05.467Z,11.73
2022-09-06T07:51:32.457Z,13.45
2022-09-06T07:54:19.260Z,13.10
2022-09-06T07:56:45.854Z,11.95
2022-09-06T07:59:12.618Z,10.52
2022-09-06T08:01:39.950Z,11.15
2022-09-06T08:04:08.633Z,12.35
2022-09-06T08:09:24.182Z,13.50
2022-09-06T08:11:52.758Z,12.07
2022-09-06T08:14:20.378Z,11.55
2022-09-06T08:16:47.455Z,12.52
2022-09-06T08:19:14.163Z,10.98
2022-09-06T08:21:40.827Z,13.95
2022-09-06T08:24:11.190Z,13.23
2022-09-06T08:26:40.463Z,12.50
2022-09-06T08:29:09.012Z,16.92
2022-09-06T08:31:38.751Z,10.85
2022-09-06T08:34:06.121Z,10.10
2022-09-06T08:36:34.103Z,14.80
2022-09-06T08:39:03.598Z,12.15
2022-09-06T08:42:00.282Z,11.43
2022-09-06T08:47:22.733Z,13.02
2022-09-06T08:49:56.864Z,9.65
2022-09-06T08:52:45.296Z,11.68
2022-09-06T08:55:34.041Z,11.32
2022-09-06T08:58:29.903Z,11.52
2022-09-06T09:01:07.517Z,10.50
2022-09-06T09:03:36.910Z,8.93
2022-09-06T09:06:06.689Z,11.52
2022-09-06T09:08:47.886Z,16.60
2022-09-06T09:11:19.945Z,13.30
2022-09-06T09:14:16.108Z,10.73
2022-09-06T09:16:43.485Z,10.95
2022-09-06T09:19:10.391Z,12.98
2022-09-06T09:21:39.984Z,11.85
2022-09-06T09:24:11.598Z,9.10
2022-09-06T09:26:55.436Z,11.32
2022-09-06T09:29:27.484Z,11.35
2022-09-06T09:31:56.267Z,10.65
2022-09-06T09:34:37.742Z,12.70
2022-09-06T09:40:29.372Z,7.97
2022-09-06T09:43:09.064Z,8.15
2022-09-06T09:45:35.715Z,9.70
2022-09-06T09:48:20.212Z,7.20
2022-09-06T09:50:47.266Z,6.30
2022-09-06T09:53:16.581Z,7.05
2022-09-06T09:55:44.103Z,9.10
2022-09-06T09:58:27.626Z,13.07
2022-09-06T10:01:31.243Z,6.63
2022-09-06T10:09:36.573Z,8.13
2022-09-06T10:12:03.582Z,6.15
2022-09-06T10:14:33.647Z,7.38
2022-09-06T10:17:00.795Z,8.38
2022-09-06T10:19:41.017Z,7.88
2022-09-06T10:22:20.114Z,7.82
2022-09-06T10:25:08.789Z,9.82
2022-09-06T10:27:39.945Z,3.72
2022-09-06T10:30:14.609Z,5.70
2022-09-06T10:33:21.775Z,5.25
2022-09-06T10:35:48.734Z,9.75
2022-09-06T10:38:35.711Z,6.05
2022-09-06T10:41:43.248Z,8.88
2022-09-06T10:44:30.927Z,9.50
2022-09-06T10:47:10.980Z,9.40
2022-09-06T10:49:38.944Z,7.57
2022-09-06T10:52:09.350Z,6.68
2022-09-06T10:54:40.398Z,7.10
2022-09-06T11:00:13.570Z,5.97
2022-09-06T11:05:54.238Z,8.38
2022-09-06T11:08:53.415Z,4.82
2022-09-06T11:11:59.812Z,5.00
2022-09-06T11:14:28.150Z,6.40
2022-09-06T11:17:00.788Z,9.27
2022-09-06T11:19:44.205Z,7.07
2022-09-06T11:22:33.741Z,4.00
2022-09-06T11:25:19.239Z,8.65
2022-09-06T11:27:51.692Z,7.15
2022-09-06T11:30:21.151Z,9.40
2022-09-06T11:33:01.698Z,7.03
2022-09-06T11:35:33.614Z,9.43
2022-09-06T11:38:10.474Z,7.80
2022-09-06T11:40:41.193Z,8.95
2022-09-06T11:43:10.059Z,10.20
2022-09-06T11:45:51.265Z,9.90
2022-09-06T11:48:24.002Z,6.22
2022-09-06T11:50:53.593Z,6.30
2022-09-06T11:53:24.873Z,6.72
2022-09-06T11:56:00.709Z,8.85
2022-09-06T11:58:43.882Z,8.98
2022-09-06T12:01:13.527Z,8.18
2022-09-06T12:06:35.573Z,9.75
2022-09-06T12:09:22.668Z,11.27
2022-09-06T12:11:49.408Z,7.50
2022-09-06T12:14:29.916Z,6.80
2022-09-06T12:17:00.183Z,13.52
2022-09-06T12:19:45.570Z,29.58
2022-09-06T12:22:31.224Z,7.90
2022-09-06T12:25:05.267Z,7.93
2022-09-06T12:27:39.261Z,9.18
2022-09-06T12:30:11.334Z,11.35
2022-09-06T12:32:45.560Z,9.10
2022-09-06T12:38:17.157Z,9.02
2022-09-06T12:40:51.548Z,14.15
2022-09-06T12:43:20.070Z,14.70
2022-09-06T12:45:50.584Z,8.38
2022-09-06T12:48:35.384Z,11.70
2022-09-06T12:51:07.730Z,11.07
2022-09-06T12:53:34.921Z,10.32
2022-09-06T12:56:12.128Z,12.15
2022-09-06T12:58:39.564Z,8.02
2022-09-06T13:01:13.716Z,8.45
2022-09-06T13:03:45.713Z,7.55
2022-09-06T13:06:22.236Z,14.93
2022-09-06T13:08:58.102Z,11.45
2022-09-06T13:11:31.690Z,14.65
2022-09-06T13:13:59.195Z,10.25
2022-09-06T13:16:43.415Z,8.88
2022-09-06T13:19:29.777Z,5.03
2022-09-06T13:22:00.354Z,7.97
2022-09-06T13:24:47.129Z,4.75
2022-09-06T13:27:37.638Z,8.88
2022-09-06T13:30:09.585Z,6.45
2022-09-06T13:32:45.313Z,10.20
2022-09-06T13:35:23.770Z,4.57
2022-09-06T13:37:50.574Z,7.82
2022-09-06T13:40:53.841Z,6.10
2022-09-06T13:43:24.838Z,5.82
2022-09-06T13:46:06.361Z,4.28
2022-09-06T13:48:33.854Z,8.70
2022-09-06T13:51:00.958Z,7.43
2022-09-06T13:53:27.628Z,7.30
2022-09-06T13:55:54.501Z,9.07
2022-09-06T13:58:21.400Z,7.40
2022-09-06T14:00:48.077Z,8.98
2022-09-06T14:03:24.810Z,7.15
2022-09-06T14:05:51.764Z,8.35
2022-09-06T14:08:18.594Z,6.60
2022-09-06T14:10:47.867Z,6.80
2022-09-06T14:13:18.404Z,5.30
2022-09-06T14:15:46.948Z,5.47
2022-09-06T14:18:14.664Z,4.55
2022-09-06T14:20:42.145Z,7.75
2022-09-06T14:23:09.288Z,4.90
2022-09-06T14:25:38.071Z,5.18
2022-09-06T14:28:05.073Z,5.22
2022-09-06T14:30:32.166Z,3.58
2022-09-06T14:32:59.004Z,5.03
2022-09-06T14:35:25.871Z,5.68
2022-09-06T14:37:52.612Z,3.00
2022-09-06T14:40:19.428Z,5.10
2022-09-06T14:42:50.276Z,4.65
2022-09-06T14:45:17.944Z,3.45
2022-09-06T14:47:44.721Z,6.82
2022-09-06T14:50:11.643Z,4.60
2022-09-06T14:52:38.272Z,8.07
2022-09-06T14:55:05.482Z,6.53
2022-09-06T14:57:32.530Z,7.82
2022-09-06T15:00:00.634Z,6.70
2022-09-06T15:02:29.037Z,9.10
2022-09-06T15:04:55.767Z,4.65
2022-09-06T15:07:22.537Z,4.95
2022-09-06T15:09:51.026Z,6.80
2022-09-06T15:12:18.089Z,4.95
2022-09-06T15:14:45.149Z,3.83
2022-09-06T15:17:12.147Z,6.97
2022-09-06T15:19:38.866Z,4.03
2022-09-06T15:22:06.257Z,7.72
2022-09-06T15:24:34.022Z,7.35
2022-09-06T15:27:02.122Z,6.70
2022-09-06T15:29:28.943Z,5.72
2022-09-06T15:31:55.839Z,9.15
2022-09-06T15:34:26.849Z,9.38
2022-09-06T15:36:54.790Z,12.13
2022-09-06T15:39:21.657Z,11.63
2022-09-06T15:41:50.014Z,6.03
2022-09-06T15:44:18.908Z,5.45
2022-09-06T15:46:50.356Z,6.18
2022-09-06T15:49:27.502Z,6.45
2022-09-06T15:52:00.843Z,8.60
2022-09-06T15:54:47.120Z,7.20
2022-09-06T15:57:16.348Z,6.35
2022-09-06T15:59:43.157Z,6.93
2022-09-06T16:02:10.215Z,7.88
2022-09-06T16:04:37.132Z,9.48
2022-09-06T16:07:04.091Z,9.35
2022-09-06T16:09:31.784Z,3.42
2022-09-06T16:11:58.620Z,5.93
2022-09-06T16:14:25.654Z,6.57
2022-09-06T16:16:53.889Z,6.00
2022-09-06T16:19:20.715Z,5.25
2022-09-06T16:21:47.501Z,3.28
2022-09-06T16:24:14.221Z,12.60
2022-09-06T16:26:43.474Z,4.60
2022-09-06T16:29:11.923Z,4.88
2022-09-06T16:31:40.499Z,7.45
2022-09-06T16:34:09.019Z,9.80
2022-09-06T16:36:36.101Z,9.40
2022-09-06T16:39:03.753Z,5.63
2022-09-06T16:41:39.418Z,10.27
2022-09-06T16:44:08.104Z,7.78
2022-09-06T16:46:35.026Z,4.20
2022-09-06T16:49:03.436Z,6.75
2022-09-06T16:51:31.466Z,5.78
2022-09-06T16:53:59.348Z,4.43
2022-09-06T16:56:29.549Z,10.55
2022-09-06T16:58:58.952Z,8.15
2022-09-06T17:01:27.438Z,7.55
2022-09-06T17:03:54.603Z,5.50
2022-09-06T17:06:22.973Z,13.90
2022-09-06T17:08:51.035Z,8.45
2022-09-06T17:11:20.346Z,7.78
2022-09-06T17:13:50.156Z,6.03
2022-09-06T17:16:37.107Z,5.32
2022-09-06T17:19:04.933Z,4.93
2022-09-06T17:21:32.323Z,4.22
2022-09-06T17:24:05.460Z,5.88
2022-09-06T17:26:35.093Z,12.18
2022-09-06T17:29:02.580Z,7.40
2022-09-06T17:31:29.884Z,5.03
2022-09-06T17:33:56.841Z,6.22
2022-09-06T17:36:25.825Z,7.45
2022-09-06T17:38:59.139Z,9.60
2022-09-06T17:41:30.059Z,5.85
2022-09-06T17:43:58.668Z,4.13
2022-09-06T17:46:28.912Z,7.20
2022-09-06T17:48:56.661Z,4.78
2022-09-06T17:51:24.620Z,9.20
2022-09-06T17:53:52.683Z,9.70
2022-09-06T17:56:20.243Z,3.65
2022-09-06T17:59:15.944Z,4.43
2022-09-06T18:01:45.430Z,5.93
2022-09-06T18:04:13.416Z,6.63
2022-09-06T18:06:42.412Z,3.95
2022-09-06T18:09:15.513Z,5.40
2022-09-06T18:11:45.723Z,4.00
2022-09-06T18:14:16.272Z,4.18
2022-09-06T18:16:47.375Z,7.00
2022-09-06T18:19:15.357Z,7.00
2022-09-06T18:21:42.413Z,6.13
2022-09-06T18:24:10.274Z,6.32
2022-09-06T18:26:38.556Z,4.68
2022-09-06T18:29:11.761Z,5.50
2022-09-06T18:31:39.713Z,4.10
2022-09-06T18:34:07.973Z,4.93
2022-09-06T18:36:34.984Z,8.20
2022-09-06T18:39:04.099Z,6.75
2022-09-06T18:41:53.304Z,8.55
2022-09-06T18:44:20.456Z,10.80
2022-09-06T18:46:48.414Z,7.10
2022-09-06T18:49:15.966Z,3.83
2022-09-06T18:51:44.035Z,3.75
2022-09-06T18:54:11.190Z,2.58
2022-09-06T18:56:38.699Z,4.50
2022-09-06T18:59:05.796Z,5.68
2022-09-06T19:01:34.862Z,6.50
2022-09-06T19:04:02.976Z,6.72
2022-09-06T19:06:31.649Z,4.05
2022-09-06T19:09:00.154Z,2.83
2022-09-06T19:11:28.214Z,4.00
2022-09-06T19:13:56.575Z,5.65
2022-09-06T19:16:25.427Z,4.93
2022-09-06T19:18:56.104Z,4.57
2022-09-06T19:21:25.670Z,3.00
2022-09-06T19:24:01.557Z,4.22
2022-09-06T19:26:34.241Z,2.85
2022-09-06T19:29:04.058Z,6.03
2022-09-06T19:31:37.394Z,5.95
2022-09-06T19:34:04.622Z,6.75
2022-09-06T19:36:31.978Z,5.93
2022-09-06T19:39:07.695Z,2.88
2022-09-06T19:41:38.122Z,6.13
2022-09-06T19:44:07.754Z,4.32
2022-09-06T19:46:35.270Z,4.07
2022-09-06T19:49:02.557Z,4.28
2022-09-06T19:51:29.792Z,4.10
2022-09-06T19:53:58.280Z,5.30
2022-09-06T19:56:27.786Z,4.68
2022-09-06T19:58:56.470Z,6.32
2022-09-06T20:01:25.565Z,4.40
2022-09-06T20:03:53.046Z,10.75
2022-09-06T20:06:20.076Z,3.65
2022-09-06T20:08:50.904Z,8.50
2022-09-06T20:11:18.371Z,10.68
2022-09-06T20:13:45.716Z,5.53
2022-09-06T20:16:13.444Z,9.50
2022-09-06T20:18:40.523Z,7.28
2022-09-06T20:21:08.198Z,6.05
2022-09-06T20:23:35.968Z,8.60
2022-09-06T20:26:15.710Z,9.02
2022-09-06T20:28:44.205Z,10.18
2022-09-06T20:31:20.702Z,8.13
2022-09-06T20:33:49.871Z,7.70
2022-09-06T20:36:17.726Z,9.52
2022-09-06T20:38:46.323Z,9.20
2022-09-06T20:41:15.874Z,12.23
2022-09-06T20:43:42.604Z,10.00
2022-09-06T20:46:15.032Z,13.50
2022-09-06T20:48:44.936Z,11.05
2022-09-06T20:51:19.211Z,11.80
2022-09-06T20:53:53.372Z,8.63
2022-09-06T20:58:50.744Z,7.03
2022-09-06T21:01:22.381Z,7.60
2022-09-06T21:03:54.617Z,12.70
2022-09-06T21:06:23.227Z,11.10
2022-09-06T21:08:50.754Z,8.18
2022-09-06T21:11:18.127Z,10.40
2022-09-06T21:13:52.003Z,9.93
2022-09-06T21:18:53.076Z,12.95
2022-09-06T21:21:20.022Z,9.32
2022-09-06T21:23:46.674Z,9.70
2022-09-06T21:26:15.934Z,10.40
2022-09-06T21:28:43.148Z,7.70
2022-09-06T21:31:15.093Z,9.13
2022-09-06T21:33:44.313Z,8.90
2022-09-06T21:36:13.659Z,14.20
2022-09-06T21:38:43.130Z,12.85
2022-09-06T21:41:11.632Z,10.52
2022-09-06T21:43:39.118Z,12.32
2022-09-06T21:46:12.137Z,7.22
2022-09-06T21:48:40.847Z,10.35
2022-09-06T21:51:08.914Z,9.48
2022-09-06T21:53:36.507Z,11.15
2022-09-06T21:56:05.154Z,12.45
2022-09-06T21:58:32.660Z,7.82
2022-09-06T22:01:00.675Z,9.38
2022-09-06T22:03:28.666Z,7.97
2022-09-06T22:05:55.578Z,10.70
2022-09-06T22:08:22.851Z,9.93
2022-09-06T22:10:50.178Z,8.52
2022-09-06T22:13:18.722Z,6.53
2022-09-06T22:15:45.866Z,6.47
2022-09-06T22:18:13.642Z,10.40
2022-09-06T22:20:40.290Z,11.50
2022-09-06T22:23:08.260Z,6.50
2022-09-06T22:25:35.156Z,15.07
2022-09-06T22:28:02.079Z,7.00
2022-09-06T22:30:28.784Z,5.32
2022-09-06T22:32:55.919Z,17.65
2022-09-06T22:35:22.521Z,12.30
2022-09-06T22:37:49.348Z,8.77
2022-09-06T22:40:16.126Z,9.68
2022-09-06T22:42:43.346Z,9.68
2022-09-06T22:45:10.257Z,9.20
2022-09-06T22:47:37.040Z,15.70
2022-09-06T22:50:03.902Z,8.82
2022-09-06T22:52:30.568Z,9.50
2022-09-06T22:54:57.137Z,5.80
2022-09-06T22:57:23.833Z,7.57
2022-09-06T22:59:50.514Z,5.05
2022-09-06T23:02:17.119Z,4.80
2022-09-06T23:04:44.161Z,8.07
2022-09-06T23:07:10.888Z,5.43
2022-09-06T23:09:37.636Z,4.90
2022-09-06T23:12:05.094Z,6.65
2022-09-06T23:14:31.772Z,4.95
2022-09-06T23:16:58.680Z,6.78
2022-09-06T23:19:25.319Z,6.38
2022-09-06T23:21:51.925Z,5.45
2022-09-06T23:24:18.735Z,4.85
2022-09-06T23:26:45.322Z,7.05
2022-09-06T23:29:12.767Z,6.38
2022-09-06T23:31:39.890Z,5.65
2022-09-06T23:34:06.694Z,6.80
2022-09-06T23:36:33.485Z,5.72
2022-09-06T23:39:01.836Z,3.60
2022-09-06T23:41:28.743Z,4.70
2022-09-06T23:43:55.423Z,4.45
2022-09-06T23:46:22.242Z,4.43
2022-09-06T23:48:48.910Z,5.18
2022-09-06T23:51:15.641Z,2.53
2022-09-06T23:53:42.618Z,4.22
2022-09-06T23:56:10.077Z,4.38
2022-09-06T23:58:37.415Z,4.45
